createdAt,value
2022-11-29T00:01:48.360Z,15.2
2022-11-29T00:07:33.740Z,14.2
2022-11-29T00:13:18.063Z,13.7
2022-11-29T00:19:01.032Z,14.5
2022-11-29T00:24:45.433Z,15.5
2022-11-29T00:30:28.908Z,15.2
2022-11-29T00:36:12.323Z,13.9
2022-11-29T00:41:55.183Z,14.9
2022-11-29T00:47:38.004Z,14.1
2022-11-29T00:53:21.046Z,15.5
2022-11-29T00:59:04.056Z,14.1
2022-11-29T01:04:48.075Z,13.4
2022-11-29T01:10:30.857Z,14.6
2022-11-29T01:16:14.021Z,14.1
2022-11-29T01:21:57.300Z,14.6
2022-11-29T01:27:40.133Z,14.2
2022-11-29T01:33:25.420Z,13
2022-11-29T01:39:08.969Z,14
2022-11-29T01:45:17.725Z,15
2022-11-29T01:51:02.209Z,13.7
2022-11-29T01:56:46.553Z,14.3
2022-11-29T02:02:31.739Z,16.4
2022-11-29T02:08:16.364Z,15.6
2022-11-29T02:14:04.778Z,15.9
2022-11-29T02:19:59.336Z,15.1
2022-11-29T02:25:51.364Z,16.1
2022-11-29T02:31:43.467Z,17.4
2022-11-29T02:37:38.887Z,17.7
2022-11-29T02:43:33.336Z,17.4
2022-11-29T02:49:21.963Z,18.6
2022-11-29T02:55:08.929Z,16.7
2022-11-29T03:00:57.866Z,16.6
2022-11-29T03:06:45.842Z,15.8
2022-11-29T03:12:34.102Z,16.9
2022-11-29T03:18:25.657Z,15.2
2022-11-29T03:24:11.909Z,14.4
2022-11-29T03:29:58.593Z,15.3
2022-11-29T03:35:43.547Z,14.3
2022-11-29T03:41:28.155Z,14.4
2022-11-29T03:47:15.269Z,14.5
2022-11-29T03:53:00.576Z,13.7
2022-11-29T03:58:50.815Z,12.1
2022-11-29T04:04:45.797Z,12.3
2022-11-29T04:10:38.914Z,12.2
2022-11-29T04:16:35.906Z,12.5
2022-11-29T04:22:35.493Z,11.1
2022-11-29T04:28:30.416Z,11.4
2022-11-29T04:34:20.504Z,10
2022-11-29T04:40:07.827Z,10.4
2022-11-29T04:46:02.419Z,9.9
2022-11-29T04:51:53.373Z,9.6
2022-11-29T04:57:39.773Z,10.6
2022-11-29T05:03:27.791Z,9.5
2022-11-29T05:09:16.239Z,9.5
2022-11-29T05:15:06.436Z,9
2022-11-29T05:20:51.047Z,9.4
2022-11-29T05:26:36.325Z,8.4
2022-11-29T05:32:30.147Z,8
2022-11-29T05:38:18.889Z,8.1
2022-11-29T05:44:09.526Z,8.8
2022-11-29T05:49:59.215Z,8.5
2022-11-29T05:55:47.352Z,7.5
2022-11-29T06:01:32.499Z,7.4
2022-11-29T06:07:19.422Z,7.7
2022-11-29T06:13:07.453Z,6.9
2022-11-29T06:19:04.525Z,6.5
2022-11-29T06:24:55.192Z,6.8
2022-11-29T06:30:43.967Z,7.2
2022-11-29T06:36:30.099Z,6.7
2022-11-29T06:42:14.361Z,6.3
2022-11-29T06:48:00.168Z,5.9
2022-11-29T06:53:46.076Z,6.3
2022-11-29T06:59:37.329Z,6.1
2022-11-29T07:05:26.183Z,6
2022-11-29T07:11:11.827Z,8.9
2022-11-29T07:17:00.512Z,7.9
2022-11-29T07:22:50.188Z,7.6
2022-11-29T07:28:40.941Z,8.2
2022-11-29T07:34:28.049Z,7.7
2022-11-29T07:40:16.390Z,7.9
2022-11-29T07:45:59.666Z,8.1
2022-11-29T07:51:42.689Z,7.7
2022-11-29T07:57:26.850Z,8.7
2022-11-29T08:03:10.327Z,9.4
2022-11-29T08:08:53.365Z,8.4
2022-11-29T08:14:37.541Z,10.5
2022-11-29T08:20:21.745Z,11.1
2022-11-29T08:26:05.760Z,9.8
2022-11-29T08:31:48.740Z,9.9
2022-11-29T08:37:32.665Z,10
2022-11-29T08:43:15.875Z,10.9
2022-11-29T08:48:58.893Z,10.4
2022-11-29T08:54:41.874Z,9.9
2022-11-29T09:00:26.941Z,10.4
2022-11-29T09:06:15.787Z,9.9
2022-11-29T09:11:58.900Z,8.7
2022-11-29T09:17:41.890Z,9.6
2022-11-29T09:23:24.848Z,10.9
2022-11-29T09:29:08.361Z,8.5
2022-11-29T09:34:52.442Z,10.2
2022-11-29T09:40:41.157Z,9
2022-11-29T09:46:29.285Z,7.2
2022-11-29T09:52:16.985Z,10.3
2022-11-29T09:58:02.553Z,8.4
2022-11-29T10:03:47.322Z,8.3
2022-11-29T10:09:37.027Z,6.4
2022-11-29T10:15:22.269Z,5.7
2022-11-29T10:21:07.213Z,7.7
2022-11-29T10:26:50.142Z,6.8
2022-11-29T10:32:34.649Z,6.3
2022-11-29T10:38:32.874Z,8
2022-11-29T10:44:16.855Z,7.1
2022-11-29T10:49:59.841Z,7
2022-11-29T10:55:45.632Z,7.2
2022-11-29T11:01:28.924Z,7.6
2022-11-29T11:07:17.071Z,6.3
2022-11-29T11:13:07.970Z,7.7
2022-11-29T11:18:50.975Z,5.9
2022-11-29T11:24:35.100Z,6.7
2022-11-29T11:30:25.017Z,7.3
2022-11-29T11:36:14.451Z,6.1
2022-11-29T11:41:57.565Z,7.4
2022-11-29T11:47:44.769Z,6.3
2022-11-29T11:53:30.041Z,5.4
2022-11-29T11:59:18.207Z,5.1
2022-11-29T12:05:05.267Z,5.7
2022-11-29T12:10:50.674Z,5.1
2022-11-29T12:16:37.194Z,4.8
2022-11-29T12:22:24.845Z,4.8
2022-11-29T12:28:17.139Z,5.3
2022-11-29T12:34:07.250Z,5.1
2022-11-29T12:40:01.577Z,5
2022-11-29T12:45:51.051Z,5.1
2022-11-29T12:51:37.425Z,4.9
2022-11-29T12:57:26.132Z,6.1
2022-11-29T13:03:15.433Z,7.1
2022-11-29T13:09:04.242Z,5.8
2022-11-29T13:14:52.720Z,5.9
2022-11-29T13:20:41.259Z,5.9
2022-11-29T13:26:26.719Z,5.5
2022-11-29T13:32:16.936Z,6.1
2022-11-29T13:38:03.661Z,6
2022-11-29T13:43:49.791Z,6.4
2022-11-29T13:49:43.771Z,5.6
2022-11-29T13:55:29.267Z,5.2
2022-11-29T14:01:13.856Z,5.6
2022-11-29T14:07:01.792Z,6.7
2022-11-29T14:12:50.025Z,5.7
2022-11-29T14:18:44.237Z,8.4
2022-11-29T14:24:40.929Z,7.8
2022-11-29T14:30:35.547Z,7.5
2022-11-29T14:36:34.109Z,13.4
2022-11-29T14:42:19.923Z,9.4
2022-11-29T14:48:04.688Z,9.9
2022-11-29T14:53:50.412Z,10.3
2022-11-29T14:59:49.361Z,12.9
2022-11-29T15:05:36.062Z,11.9
2022-11-29T15:11:23.234Z,12.9
2022-11-29T15:17:19.215Z,12
2022-11-29T15:23:04.169Z,9.9
2022-11-29T15:28:47.995Z,10.2
2022-11-29T15:34:34.705Z,10.4
2022-11-29T15:40:19.728Z,22.4
2022-11-29T15:46:03.615Z,10.6
2022-11-29T15:51:49.147Z,9.2
2022-11-29T15:57:37.616Z,8.9
2022-11-29T16:03:23.496Z,9.1
2022-11-29T16:09:09.323Z,8.7
2022-11-29T16:14:57.374Z,8.6
2022-11-29T16:20:41.154Z,10
2022-11-29T16:26:26.326Z,9.7
2022-11-29T16:32:25.572Z,9.7
2022-11-29T16:38:14.659Z,8.6
2022-11-29T16:43:58.834Z,8.9
2022-11-29T16:49:42.282Z,8.4
2022-11-29T16:55:25.762Z,8.6
2022-11-29T17:01:21.793Z,8
2022-11-29T17:07:05.316Z,8.4
2022-11-29T17:12:51.306Z,7.7
2022-11-29T17:18:34.886Z,8.5
2022-11-29T17:24:19.314Z,8.4
2022-11-29T17:30:03.825Z,8.2
2022-11-29T17:35:47.200Z,8.7
2022-11-29T17:41:31.039Z,9.6
2022-11-29T17:47:17.232Z,8.3
2022-11-29T17:53:00.661Z,8.5
2022-11-29T17:58:44.138Z,8
2022-11-29T18:04:27.701Z,7.9
2022-11-29T18:10:12.042Z,7.8
2022-11-29T18:15:55.482Z,7.3
2022-11-29T18:21:39.442Z,7.8
2022-11-29T18:27:22.713Z,8.2
2022-11-29T18:33:06.914Z,8.4
2022-11-29T18:38:51.148Z,7.6
2022-11-29T18:44:34.750Z,8.7
2022-11-29T18:50:18.905Z,7.2
2022-11-29T18:56:06.788Z,8.9
2022-11-29T19:01:50.961Z,7.3
2022-11-29T19:07:34.805Z,7.2
2022-11-29T19:13:17.757Z,7.8
2022-11-29T19:19:01.719Z,8.7
2022-11-29T19:24:45.790Z,7.7
2022-11-29T19:30:29.161Z,8.1
2022-11-29T19:36:14.779Z,9.6
2022-11-29T19:41:57.871Z,8.4
2022-11-29T19:47:41.017Z,10.1
2022-11-29T19:53:24.516Z,9.4
2022-11-29T19:59:07.993Z,8.1
2022-11-29T20:04:51.206Z,8.7
2022-11-29T20:10:35.170Z,8.9
2022-11-29T20:16:19.375Z,8.8
2022-11-29T20:22:02.416Z,9.8
2022-11-29T20:27:45.324Z,8.7
2022-11-29T20:33:28.459Z,9.6
2022-11-29T20:39:16.393Z,8.5
2022-11-29T20:45:00.580Z,9.5
2022-11-29T20:50:46.552Z,8.9
2022-11-29T20:56:32.477Z,8.3
2022-11-29T21:02:15.532Z,9.5
2022-11-29T21:07:59.790Z,9.6
2022-11-29T21:13:43.579Z,9.1
2022-11-29T21:19:28.496Z,9.3
2022-11-29T21:25:14.916Z,9.1
2022-11-29T21:31:00.631Z,8.4
2022-11-29T21:36:46.614Z,8.9
2022-11-29T21:42:30.060Z,8.9
2022-11-29T21:48:13.345Z,8.4
2022-11-29T21:53:56.649Z,8.3
2022-11-29T21:59:39.737Z,9.3
2022-11-29T22:05:22.904Z,8.6
2022-11-29T22:11:07.455Z,8.3
2022-11-29T22:16:51.168Z,8.1
2022-11-29T22:22:34.432Z,8.3
2022-11-29T22:28:17.511Z,7.5
2022-11-29T22:34:00.728Z,7.7
2022-11-29T22:39:43.758Z,7.4
2022-11-29T22:45:26.799Z,8
2022-11-29T22:51:11.967Z,7.6
2022-11-29T22:56:55.278Z,7.4
2022-11-29T23:02:38.523Z,8
2022-11-29T23:08:21.541Z,7.9
2022-11-29T23:14:05.876Z,7.5
2022-11-29T23:19:49.001Z,8
2022-11-29T23:25:32.247Z,7.7
2022-11-29T23:31:16.875Z,7.8
2022-11-29T23:37:00.256Z,7.5
2022-11-29T23:42:49.238Z,8.8
2022-11-29T23:48:32.172Z,8.3
2022-11-29T23:54:16.323Z,7.9
2022-11-29T23:59:59.418Z,9.2
